• Join FlightAware (Why Join?)
  • Login
  • US Flag 
03:59AM EDT


 

Airport Tracker/Info


-or-


 

Live Flight TrackerFlight Track Log ✈ UAL4588 ✈ 04-May-2013 ✈ KIAH - KGJT

Flight Track Log - Related Links

Times and Time Zones

All times are in EDT time to prevent confusion due to time zone crossing. See the UAL4588 flight status page for this flight to view local times or setup timezone preferences in your user account.

Time Position Orientation Groundspeed Altitude Reporting Facility
EDT Latitude Longitude Course Direction KTS MPH feet Rate Location/Type
10:19AM 29.9572 -95.3392 201° Southwest 157 181 800  Level Houston Center
10:20AM 29.9269 -95.3525 201° Southwest 187 215 2,100 2,040 Climbing Houston Center
10:21AM 29.9689 -95.3944 319° Northwest 234 269 4,500 2,700 Climbing Houston Center
10:22AM 30.0331 -95.4203 341° North 243 280 7,500 2,700 Climbing Houston Center
10:23AM 30.0964 -95.4508 337° Northwest 247 284 10,200 1,740 Climbing Houston Center
10:24AM 30.1711 -95.4858 338° Northwest 286 329 11,100 1,320 Climbing Houston Center
10:25AM 30.2522 -95.5211 339° North 309 356 13,000 1,860 Climbing Houston Center
10:26AM 30.3344 -95.5600 338° Northwest 317 365 15,000 1,800 Climbing Houston Center
10:27AM 30.4189 -95.5981 339° North 325 374 16,800 1,800 Climbing Houston Center
10:28AM 30.5189 -95.6453 338° Northwest 323 372 18,800 1,800 Climbing Houston Center
10:29AM 30.6017 -95.6878 336° Northwest 323 372 20,600 1,800 Climbing Houston Center
10:30AM 30.6817 -95.7300 336° Northwest 318 366 22,600 1,560 Climbing Houston Center
10:31AM 30.7592 -95.7719 335° Northwest 312 359 23,900 1,500 Climbing Houston Center
10:32AM 30.8419 -95.8158 336° Northwest 318 366 25,700 1,680 Climbing Houston Center
10:33AM 30.9236 -95.8600 335° Northwest 321 369 27,400 1,620 Climbing Houston Center
10:34AM 31.0214 -95.9122 335° Northwest 321 369 29,100 1,620 Climbing Houston Center
10:35AM 31.1006 -95.9544 335° Northwest 316 364 30,800 1,560 Climbing Houston Center
10:36AM 31.1817 -95.9903 339° North 313 360 32,300 1,440 Climbing Houston Center
10:37AM 31.2619 -96.0203 342° North 305 351 33,800 780 Climbing Houston Center
10:38AM 31.3417 -96.0514 342° North 304 350 34,000 60 Climbing Fort Worth Center
10:39AM 31.4256 -96.0842 342° North 316 364 34,000  Level Fort Worth Center
10:40AM 31.5242 -96.1217 342° North 344 396 34,000  Level Fort Worth Center
10:41AM 31.6247 -96.1617 341° North 371 427 34,000  Level Fort Worth Center
10:42AM 31.7317 -96.2019 342° North 387 445 34,000  Level Fort Worth Center
10:43AM 31.8364 -96.2444 341° North 387 445 34,000  Level Fort Worth Center
10:44AM 31.9411 -96.2872 341° North 397 457 34,000  Level Fort Worth Center
10:45AM 32.0583 -96.3322 342° North 397 457 34,000  Level Fort Worth Center
10:46AM 32.1653 -96.3778 340° North 403 464 34,000  Level Fort Worth Center
10:47AM 32.2678 -96.4158 343° North 398 458 34,000  Level Fort Worth Center
10:48AM 32.3622 -96.4517 342° North 393 452 34,000  Level Fort Worth Center
10:49AM 32.4753 -96.4947 342° North 387 445 34,000  Level Fort Worth Center
10:50AM 32.5672 -96.5308 342° North 387 445 34,000  Level Fort Worth Center
10:51AM 32.6825 -96.5742 342° North 387 445 34,000  Level Fort Worth Center
10:52AM 32.7744 -96.6103 342° North 387 445 34,000  Level Fort Worth Center
10:53AM 32.8917 -96.6539 343° North 387 445 34,000  Level Fort Worth Center
10:54AM 32.9836 -96.6928 340° North 392 451 34,000  Level Fort Worth Center
10:55AM 33.1008 -96.7364 343° North 398 458 34,000  Level Fort Worth Center
10:56AM 33.1928 -96.7706 343° North 388 447 34,000  Level Fort Worth Center
10:57AM 33.3036 -96.8144 342° North 381 438 34,000  Level Fort Worth Center
10:58AM 33.3917 -96.8586 337° Northwest 380 437 34,000  Level Fort Worth Center
10:59AM 33.4797 -96.9453 321° Northwest 371 427 34,000  Level Fort Worth Center
11:00AM 33.5486 -97.0172 319° Northwest 365 420 34,000  Level Fort Worth Center
11:01AM 33.6325 -97.1067 318° Northwest 371 427 34,000  Level Fort Worth Center
11:02AM 33.7056 -97.1911 316° Northwest 371 427 34,000  Level Fort Worth Center
11:03AM 33.7808 -97.2736 318° Northwest 371 427 34,000  Level Fort Worth Center
11:04AM 33.8561 -97.3558 318° Northwest 371 427 34,000  Level Fort Worth Center
11:05AM 33.9333 -97.4361 319° Northwest 371 427 34,000  Level Fort Worth Center
11:06AM 34.0125 -97.5161 320° Northwest 371 427 34,000  Level Fort Worth Center
11:07AM 34.0897 -97.5992 318° Northwest 371 427 34,000  Level Fort Worth Center
11:08AM 34.1625 -97.6844 316° Northwest 366 421 34,000  Level Fort Worth Center
11:09AM 34.2375 -97.7678 317° Northwest 366 421 34,000  Level Fort Worth Center
11:10AM 34.3144 -97.8511 318° Northwest 371 427 34,000  Level Fort Worth Center
11:11AM 34.3933 -97.9344 319° Northwest 371 427 34,000  Level Fort Worth Center
11:12AM 34.4597 -98.0081 318° Northwest 371 427 34,000  Level Fort Worth Center
11:13AM 34.5367 -98.0917 318° Northwest 371 427 34,000  Level Fort Worth Center
11:14AM 34.6133 -98.1756 318° Northwest 371 427 34,000  Level Fort Worth Center
11:15AM 34.6900 -98.2619 317° Northwest 371 427 34,000  Level Fort Worth Center
11:16AM 34.7667 -98.3489 317° Northwest 371 427 34,000  Level Fort Worth Center
11:17AM 34.8431 -98.4281 320° Northwest 371 427 34,000  Level Fort Worth Center
11:18AM 34.9194 -98.5150 317° Northwest 371 427 34,000  Level Fort Worth Center
11:19AM 34.9958 -98.5997 318° Northwest 371 427 34,000  Level Fort Worth Center
11:20AM 35.0744 -98.6869 318° Northwest 371 427 34,000  Level Fort Worth Center
11:21AM 35.1506 -98.7719 318° Northwest 371 427 34,000  Level Fort Worth Center
11:22AM 35.2289 -98.8572 318° Northwest 371 427 34,000  Level Fort Worth Center
11:23AM 35.3050 -98.9450 317° Northwest 371 427 34,000  Level Fort Worth Center
11:24AM 35.3792 -99.0278 318° Northwest 364 419 34,000  Level Fort Worth Center
11:25AM 35.4572 -99.1158 317° Northwest 369 425 34,000  Level Fort Worth Center
11:27AM 35.5925 -99.2675 318° Northwest 375 432 34,000  Level Kansas City Center
11:28AM 35.6703 -99.3550 318° Northwest 377 434 34,000  Level Kansas City Center
11:29AM 35.7461 -99.4450 316° Northwest 378 435 34,000  Level Kansas City Center
11:30AM 35.8242 -99.5328 318° Northwest 380 437 34,000  Level Kansas City Center
11:31AM 35.9169 -99.6400 317° Northwest 380 437 34,000  Level Kansas City Center
11:32AM 35.9847 -99.7192 317° Northwest 379 436 34,000  Level Kansas City Center
11:33AM 36.0614 -99.8094 316° Northwest 381 438 34,000  Level Kansas City Center
11:34AM 36.1550 -99.9175 317° Northwest 384 442 34,000  Level Kansas City Center
11:35AM 36.2308 -100.0053 317° Northwest 385 443 34,000  Level Kansas City Center
11:36AM 36.3053 -100.0922 317° Northwest 385 443 34,000  Level Kansas City Center
11:37AM 36.3922 -100.1961 316° Northwest 387 445 34,000  Level Kansas City Center
11:38AM 36.4672 -100.2831 317° Northwest 386 444 34,000  Level Kansas City Center
11:39AM 36.5542 -100.3867 316° Northwest 387 445 34,000  Level Kansas City Center
11:40AM 36.6294 -100.4756 317° Northwest 388 447 34,000  Level Kansas City Center
11:41AM 36.7167 -100.5794 316° Northwest 388 447 34,000  Level Kansas City Center
11:42AM 36.7914 -100.6681 316° Northwest 388 447 34,000  Level Kansas City Center
11:43AM 36.8669 -100.7583 316° Northwest 390 449 34,000  Level Kansas City Center
11:44AM 36.9550 -100.8631 316° Northwest 391 450 34,000  Level Kansas City Center
11:45AM 37.0297 -100.9542 316° Northwest 391 450 34,000  Level Kansas City Center
11:46AM 37.1111 -101.0672 312° West 389 448 34,000  Level Kansas City Center
11:47AM 37.1786 -101.1658 311° West 388 447 34,000  Level Kansas City Center
11:49AM 37.2456 -101.2656 310° West 388 447 34,000  Level Kansas City Center
11:50AM 37.3256 -101.3819 311° West 391 450 34,000  Level Kansas City Center
11:51AM 37.3931 -101.4817 310° West 389 448 34,000  Level Kansas City Center
11:52AM 37.4722 -101.5981 311° West 390 449 34,000  Level Kansas City Center
11:53AM 37.5403 -101.6997 310° West 393 452 34,000  Level Kansas City Center
11:54AM 37.6086 -101.8008 310° West 394 453 34,000  Level Kansas City Center
11:54AM 37.6428 -101.8517 310° West 395 455 34,000  Level Denver Center
11:55AM 37.7222 -101.9700 310° West 395 455 34,000  Level Denver Center
11:56AM 37.7908 -102.0714 311° West 396 456 34,000  Level Denver Center
11:57AM 37.8700 -102.1900 310° West 395 455 34,000  Level Denver Center
11:58AM 37.9381 -102.2917 310° West 396 456 34,000  Level Denver Center
11:59AM 38.0156 -102.4111 309° West 395 455 34,000  Level Denver Center
12:00PM 38.0819 -102.5133 310° West 392 451 34,000  Level Denver Center
12:01PM 38.1497 -102.6156 310° West 392 451 34,000  Level Denver Center
12:02PM 38.2017 -102.7522 296° West 393 452 34,000  Level Denver Center
12:04PM 38.2086 -102.8836 274° West 389 448 34,000  Level Denver Center
12:05PM 38.2203 -103.0594 275° West 391 450 34,000  Level Denver Center
12:06PM 38.2286 -103.1947 275° West 394 453 34,000  Level Denver Center
12:07PM 38.2364 -103.3486 274° West 392 451 34,000  Level Denver Center
12:08PM 38.2456 -103.4811 275° West 391 450 34,000  Level Denver Center
12:09PM 38.2531 -103.6356 274° West 393 452 34,000  Level Denver Center
12:10PM 38.2600 -103.7681 274° West 392 451 34,000  Level Denver Center
12:11PM 38.2689 -103.9225 274° West 394 453 34,000  Level Denver Center
12:12PM 38.2756 -104.0544 274° West 392 451 34,000  Level Denver Center
12:13PM 38.2817 -104.1864 273° West 392 451 34,000  Level Denver Center
12:14PM 38.2897 -104.3419 274° West 394 453 34,000  Level Denver Center
12:15PM 38.2969 -104.4722 274° West 391 450 34,000  Level Denver Center
12:16PM 38.3072 -104.6272 275° West 392 451 34,000  Level Denver Center
12:17PM 38.3167 -104.7581 275° West 391 450 34,000  Level Denver Center
12:18PM 38.3272 -104.9114 275° West 391 450 34,000  Level Denver Center
12:19PM 38.3367 -105.0419 275° West 389 448 34,000  Level Denver Center
12:20PM 38.3467 -105.1903 275° West 391 450 34,000  Level Denver Center
12:21PM 38.3550 -105.3297 274° West 391 450 34,000  Level Denver Center
12:22PM 38.3639 -105.4683 275° West 391 450 34,000  Level Denver Center
12:23PM 38.3728 -105.6069 275° West 388 447 34,000  Level Denver Center
12:24PM 38.3811 -105.7461 274° West 389 448 34,000  Level Denver Center
12:25PM 38.3900 -105.8964 274° West 386 444 34,000  Level Denver Center
12:26PM 38.3969 -106.0275 274° West 387 445 34,000  Level Denver Center
12:27PM 38.4058 -106.1692 275° West 386 444 34,000  Level Denver Center
12:28PM 38.4139 -106.3047 274° West 385 443 34,000  Level Denver Center
12:29PM 38.4217 -106.4425 274° West 387 445 34,000  Level Denver Center
12:30PM 38.4286 -106.5792 274° West 386 444 34,000 -360 Level Denver Center
12:31PM 38.4356 -106.7175 274° West 388 447 33,300 -1,500 Descending Denver Center
12:32PM 38.4436 -106.8814 274° West 386 444 30,900 -2,160 Descending Denver Center
12:33PM 38.4514 -107.0231 274° West 396 456 28,900 -1,980 Descending Denver Center
12:34PM 38.4950 -107.1583 292° West 409 471 26,900 -1,920 Descending Denver Center
12:36PM 38.5307 -107.2826 299° West  Level FlightAware Approximate
12:37PM 38.5906 -107.4300 299° West 418 481 23,000  Level Denver Center
12:38PM 38.6431 -107.5811 294° West 415 478 20,800 -2,040 Descending Denver Center
12:39PM 38.6850 -107.7022 294° West 394 453 18,900 -2,040 Descending Denver Center
12:40PM 38.7344 -107.8417 294° West 386 444 16,700 -1,860 Descending Denver Center
12:41PM 38.7758 -107.9617 294° West 385 443 15,100 -900 Descending Denver Center
12:42PM 38.8244 -108.1036 294° West 381 438 14,900 -180 Descending Denver Center
12:43PM 38.8656 -108.2217 294° West 384 442 14,800 -1,140 Descending Denver Center
12:44PM 38.9139 -108.3533 295° West 383 441 12,600 -1,440 Descending Denver Center
12:45PM 38.9569 -108.4872 293° West 373 429 11,900 -720 Descending Denver Center
12:46PM 39.0081 -108.5872 303° West 327 376 11,200 -1,020 Descending Denver Center
12:47PM 39.0533 -108.6792 302° West 304 350 9,800 -1,080 Descending Denver Center
12:48PM 39.0967 -108.7694 302° West 277 319 9,000 -480 Descending Denver Center
12:49PM 39.1833 -108.7850 352° North 263 303 8,800 -660 Descending Denver Center
12:50PM 39.2175 -108.7219 55° Northeast 223 257 7,500 -1,020 Descending Denver Center
12:51PM 39.1925 -108.6522 115° Southeast 200 230 6,700 -780 Descending Denver Center
12:52PM 39.1669 -108.6044 125° Southeast 168 193 5,900 -780 Descending Denver Center
12:53PM 39.1428 -108.5603 125° Southeast 144 166 5,200 -540 Descending Denver Center
12:54PM 39.1194 -108.5167 125° Southeast 141 162 4,800 -420 Descending Denver Center
12:56PM 39.1167 -108.5167 North  Level FlightAware Approximate
01:03PM 39.1224 -108.5267 North  Level Estimated